createdAt,value
2018-11-14T00:00:33.244Z,102208.86
2018-11-14T00:03:03.163Z,102210.94
2018-11-14T00:05:32.126Z,102210.00
2018-11-14T00:08:01.063Z,102203.83
2018-11-14T00:10:30.030Z,102207.13
2018-11-14T00:12:59.009Z,102216.21
2018-11-14T00:15:27.925Z,102224.09
2018-11-14T00:17:56.894Z,102218.97
2018-11-14T00:20:25.851Z,102225.61
2018-11-14T00:22:54.813Z,102220.58
2018-11-14T00:25:23.818Z,102229.02
2018-11-14T00:27:52.819Z,102230.12
2018-11-14T00:30:23.461Z,102230.52
2018-11-14T00:32:52.406Z,102229.77
2018-11-14T00:35:21.364Z,102232.29
2018-11-14T00:37:50.613Z,102235.81
2018-11-14T00:40:20.154Z,102241.91
2018-11-14T00:42:49.430Z,102236.83
2018-11-14T00:45:20.677Z,102240.56
2018-11-14T00:47:50.031Z,102233.52
2018-11-14T00:50:19.561Z,102240.34
2018-11-14T00:52:48.505Z,102244.13
2018-11-14T00:55:18.805Z,102246.43
2018-11-14T00:57:48.777Z,102252.00
2018-11-14T01:00:19.248Z,102246.75
2018-11-14T01:02:48.228Z,102254.23
2018-11-14T01:05:18.031Z,102249.42
2018-11-14T01:07:47.007Z,102246.29
2018-11-14T01:10:17.389Z,102242.27
2018-11-14T01:12:46.942Z,102238.24
2018-11-14T01:15:17.517Z,102243.00
2018-11-14T01:17:46.485Z,102250.94
2018-11-14T01:20:17.846Z,102257.67
2018-11-14T01:22:47.028Z,102256.27
2018-11-14T01:25:16.765Z,102263.81
2018-11-14T01:27:46.179Z,102265.59
2018-11-14T01:30:18.133Z,102276.20
2018-11-14T01:32:47.851Z,102269.25
2018-11-14T01:35:17.236Z,102274.92
2018-11-14T01:37:46.333Z,102278.33
2018-11-14T01:40:20.071Z,102281.88
2018-11-14T01:42:50.382Z,102278.77
2018-11-14T01:45:19.425Z,102281.82
2018-11-14T01:47:48.486Z,102289.48
2018-11-14T01:50:17.578Z,102290.52
2018-11-14T01:52:46.770Z,102288.52
2018-11-14T01:55:17.262Z,102282.10
2018-11-14T01:57:46.408Z,102291.02
2018-11-14T02:00:18.762Z,102294.30
2018-11-14T02:02:47.787Z,102296.13
2018-11-14T02:05:16.751Z,102288.71
2018-11-14T02:07:45.834Z,102300.22
2018-11-14T02:10:16.405Z,102290.64
2018-11-14T02:12:46.007Z,102288.93
2018-11-14T02:15:17.114Z,102286.56
2018-11-14T02:17:46.090Z,102283.94
2018-11-14T02:20:15.124Z,102289.05
2018-11-14T02:22:44.694Z,102283.87
2018-11-14T02:25:14.226Z,102287.91
2018-11-14T02:27:43.266Z,102289.80
2018-11-14T02:30:15.405Z,102285.03
2018-11-14T02:32:44.480Z,102297.22
2018-11-14T02:35:13.449Z,102293.83
2018-11-14T02:37:43.398Z,102282.44
2018-11-14T02:40:17.943Z,102288.40
2018-11-14T02:42:47.493Z,102285.28
2018-11-14T02:45:16.626Z,102284.00
2018-11-14T02:47:45.589Z,102278.58
2018-11-14T02:50:15.949Z,102286.50
2018-11-14T02:52:44.918Z,102277.86
2018-11-14T02:55:14.961Z,102279.33
2018-11-14T02:57:44.349Z,102281.69
2018-11-14T03:00:15.687Z,102291.47
2018-11-14T03:02:45.098Z,102287.91
2018-11-14T03:05:14.104Z,102289.36
2018-11-14T03:07:43.011Z,102283.03
2018-11-14T03:10:14.705Z,102286.62
2018-11-14T03:12:43.678Z,102283.06
2018-11-14T03:15:15.645Z,102292.67
2018-11-14T03:17:44.575Z,102307.57
2018-11-14T03:20:14.859Z,102301.30
2018-11-14T03:22:43.863Z,102298.88
2018-11-14T03:25:13.652Z,102306.36
2018-11-14T03:27:42.641Z,102304.11
2018-11-14T03:30:13.999Z,102307.13
2018-11-14T03:32:43.528Z,102302.86
2018-11-14T03:35:13.312Z,102306.73
2018-11-14T03:37:42.295Z,102310.77
2018-11-14T03:40:14.541Z,102313.89
2018-11-14T03:42:43.534Z,102309.55
2018-11-14T03:45:13.677Z,102304.87
2018-11-14T03:47:43.048Z,102306.92
2018-11-14T03:50:12.118Z,102313.47
2018-11-14T03:52:41.131Z,102308.00
2018-11-14T03:55:10.149Z,102310.05
2018-11-14T03:57:39.186Z,102317.12
2018-11-14T04:00:12.388Z,102314.14
2018-11-14T04:02:41.426Z,102307.95
2018-11-14T04:05:10.408Z,102307.38
2018-11-14T04:07:40.183Z,102307.97
2018-11-14T04:10:10.600Z,102302.12
2018-11-14T04:12:40.192Z,102304.06
2018-11-14T04:15:10.345Z,102300.09
2018-11-14T04:17:39.646Z,102298.93
2018-11-14T04:20:10.881Z,102293.78
2018-11-14T04:22:39.863Z,102297.33
2018-11-14T04:25:10.644Z,102288.09
2018-11-14T04:27:39.712Z,102290.97
2018-11-14T04:30:11.335Z,102305.63
2018-11-14T04:32:40.448Z,102301.19
2018-11-14T04:35:10.747Z,102297.72
2018-11-14T04:37:39.974Z,102297.98
2018-11-14T04:40:11.145Z,102306.86
2018-11-14T04:42:40.222Z,102307.12
2018-11-14T04:45:11.500Z,102303.59
2018-11-14T04:47:40.550Z,102308.09
2018-11-14T04:50:11.700Z,102307.70
2018-11-14T04:52:40.653Z,102311.76
2018-11-14T04:55:11.246Z,102303.69
2018-11-14T04:57:40.605Z,102299.08
2018-11-14T05:00:11.266Z,102301.52
2018-11-14T05:02:41.193Z,102298.89
2018-11-14T05:05:12.255Z,102307.01
2018-11-14T05:07:41.280Z,102301.80
2018-11-14T05:10:12.655Z,102312.88
2018-11-14T05:12:41.931Z,102304.23
2018-11-14T05:15:12.358Z,102316.77
2018-11-14T05:17:41.293Z,102322.96
2018-11-14T05:20:11.735Z,102317.45
2018-11-14T05:22:40.746Z,102324.62
2018-11-14T05:25:09.743Z,102328.57
2018-11-14T05:27:38.671Z,102327.81
2018-11-14T05:30:12.000Z,102338.02
2018-11-14T05:32:41.345Z,102341.78
2018-11-14T05:35:11.068Z,102345.55
2018-11-14T05:37:40.416Z,102338.02
2018-11-14T05:40:12.497Z,102346.47
2018-11-14T05:42:41.977Z,102347.52
2018-11-14T05:45:17.366Z,102352.33
2018-11-14T05:47:46.333Z,102345.94
2018-11-14T05:50:17.606Z,102351.83
2018-11-14T05:52:46.584Z,102355.64
2018-11-14T05:55:15.980Z,102348.06
2018-11-14T05:57:45.044Z,102342.64
2018-11-14T06:00:20.765Z,102348.30
2018-11-14T06:02:49.705Z,102348.74
2018-11-14T06:05:18.718Z,102357.30
2018-11-14T06:07:47.746Z,102357.21
2018-11-14T06:10:16.683Z,102349.16
2018-11-14T06:12:45.635Z,102351.61
2018-11-14T06:15:16.392Z,102352.02
2018-11-14T06:17:46.062Z,102352.21
2018-11-14T06:20:16.198Z,102356.09
2018-11-14T06:22:46.106Z,102350.40
2018-11-14T06:25:25.960Z,102357.45
2018-11-14T06:27:55.764Z,102355.20
2018-11-14T06:30:25.079Z,102365.09
2018-11-14T06:32:54.530Z,102365.28
2018-11-14T06:35:23.729Z,102371.30
2018-11-14T06:37:53.267Z,102376.09
2018-11-14T06:40:22.264Z,102370.97
2018-11-14T06:42:51.198Z,102369.95
2018-11-14T06:45:22.213Z,102381.24
2018-11-14T06:47:52.419Z,102389.61
2018-11-14T06:50:21.362Z,102387.81
2018-11-14T06:52:51.479Z,102386.55
2018-11-14T06:55:21.244Z,102384.02
2018-11-14T06:57:50.216Z,102381.70
2018-11-14T07:00:23.215Z,102386.22
2018-11-14T07:02:52.750Z,102386.27
2018-11-14T07:05:21.734Z,102384.93
2018-11-14T07:07:50.665Z,102381.95
2018-11-14T07:10:21.997Z,102389.17
2018-11-14T07:12:50.985Z,102386.53
2018-11-14T07:15:21.180Z,102380.25
2018-11-14T07:17:51.184Z,102382.34
2018-11-14T07:20:23.602Z,102387.34
2018-11-14T07:22:52.856Z,102393.91
2018-11-14T07:25:21.779Z,102396.72
2018-11-14T07:27:50.693Z,102409.21
2018-11-14T07:30:20.859Z,102403.88
2018-11-14T07:32:52.359Z,102412.23
2018-11-14T07:35:21.378Z,102403.61
2018-11-14T07:38:01.770Z,102402.84
2018-11-14T07:40:30.678Z,102406.37
2018-11-14T07:42:59.609Z,102415.77
2018-11-14T07:45:28.604Z,102420.64
2018-11-14T07:47:57.549Z,102424.78
2018-11-14T07:50:26.476Z,102423.25
2018-11-14T07:52:55.431Z,102434.23
2018-11-14T07:55:24.427Z,102432.02
2018-11-14T07:57:53.378Z,102434.25
2018-11-14T08:00:22.340Z,102433.72
2018-11-14T08:02:51.266Z,102435.34
2018-11-14T08:05:20.199Z,102433.69
2018-11-14T08:07:49.205Z,102434.23
2018-11-14T08:10:18.102Z,102441.84
2018-11-14T08:12:47.087Z,102433.14
2018-11-14T08:15:16.021Z,102434.20
2018-11-14T08:17:44.964Z,102434.44
2018-11-14T08:20:15.399Z,102437.41
2018-11-14T08:22:44.341Z,102437.36
2018-11-14T08:25:13.572Z,102432.20
2018-11-14T08:27:42.644Z,102433.66
2018-11-14T08:30:11.604Z,102433.59
2018-11-14T08:32:40.528Z,102435.45
2018-11-14T08:35:10.553Z,102443.77
2018-11-14T08:37:40.366Z,102454.48
2018-11-14T08:40:10.009Z,102456.30
2018-11-14T08:42:39.570Z,102458.45
2018-11-14T08:45:10.227Z,102455.70
2018-11-14T08:47:39.775Z,102458.39
2018-11-14T08:50:13.484Z,102458.86
2018-11-14T08:52:42.833Z,102471.29
2018-11-14T08:55:12.598Z,102466.32
2018-11-14T08:57:42.529Z,102474.96
2018-11-14T09:00:20.691Z,102468.95
2018-11-14T09:02:50.122Z,102468.10
2018-11-14T09:05:19.072Z,102468.75
2018-11-14T09:07:48.533Z,102475.72
2018-11-14T09:10:19.693Z,102471.94
2018-11-14T09:12:48.812Z,102481.25
2018-11-14T09:15:19.117Z,102492.45
2018-11-14T09:17:48.159Z,102487.20
2018-11-14T09:20:18.565Z,102487.47
2018-11-14T09:22:47.665Z,102484.00
2018-11-14T09:25:18.614Z,102486.12
2018-11-14T09:27:47.604Z,102485.47
2018-11-14T09:30:18.964Z,102495.08
2018-11-14T09:32:47.941Z,102497.89
2018-11-14T09:35:18.129Z,102499.61
2018-11-14T09:37:47.061Z,102500.23
2018-11-14T09:40:17.695Z,102494.30
2018-11-14T09:42:46.709Z,102496.45
2018-11-14T09:45:18.025Z,102501.27
2018-11-14T09:47:46.975Z,102495.27
2018-11-14T09:50:17.440Z,102498.27
2018-11-14T09:52:48.756Z,102499.11
2018-11-14T09:55:17.729Z,102504.73
2018-11-14T09:57:46.920Z,102505.23
2018-11-14T10:00:19.062Z,102501.33
2018-11-14T10:02:49.372Z,102497.30
2018-11-14T10:05:19.728Z,102501.20
2018-11-14T10:07:48.783Z,102498.64
2018-11-14T10:10:18.971Z,102497.73
2018-11-14T10:12:47.917Z,102497.89
2018-11-14T10:15:21.223Z,102492.55
2018-11-14T10:17:50.333Z,102474.66
2018-11-14T10:20:20.643Z,102480.16
2018-11-14T10:22:49.622Z,102481.50
2018-11-14T10:25:18.737Z,102484.11
2018-11-14T10:27:48.344Z,102484.78
2018-11-14T10:30:19.213Z,102483.95
2018-11-14T10:32:48.829Z,102482.55
2018-11-14T10:35:17.758Z,102492.42
2018-11-14T10:37:46.661Z,102489.66
2018-11-14T10:40:18.130Z,102498.72
2018-11-14T10:42:47.127Z,102500.77
2018-11-14T10:45:17.316Z,102498.03
2018-11-14T10:47:46.317Z,102490.02
2018-11-14T10:50:17.993Z,102483.38
2018-11-14T10:52:46.996Z,102479.10
2018-11-14T10:55:16.603Z,102468.64
2018-11-14T10:57:45.534Z,102473.58
2018-11-14T11:00:22.087Z,102470.82
2018-11-14T11:02:56.412Z,102459.30
2018-11-14T11:05:32.568Z,102458.25
2018-11-14T11:08:06.830Z,102447.77
2018-11-14T11:10:40.966Z,102443.35
2018-11-14T11:13:15.038Z,102442.44
2018-11-14T11:15:49.590Z,102435.45
2018-11-14T11:18:19.547Z,102435.34
2018-11-14T11:20:48.466Z,102439.09
2018-11-14T11:23:17.433Z,102439.91
2018-11-14T11:25:46.401Z,102448.63
2018-11-14T11:28:15.334Z,102444.11
2018-11-14T11:30:44.374Z,102441.45
2018-11-14T11:33:13.229Z,102445.56
2018-11-14T11:35:42.207Z,102446.67
2018-11-14T11:38:11.151Z,102450.13
2018-11-14T11:40:40.061Z,102449.82
2018-11-14T11:43:09.062Z,102451.17
2018-11-14T11:45:38.023Z,102442.80
2018-11-14T11:48:06.980Z,102443.78
2018-11-14T11:50:35.957Z,102443.01
2018-11-14T11:53:05.062Z,102445.84
2018-11-14T11:55:34.077Z,102442.81
2018-11-14T11:58:03.048Z,102447.52
2018-11-14T12:00:32.151Z,102450.44
2018-11-14T12:03:00.989Z,102450.49
2018-11-14T12:05:29.914Z,102449.34
2018-11-14T12:07:58.908Z,102450.94
2018-11-14T12:10:27.886Z,102442.34
2018-11-14T12:12:56.859Z,102444.04
2018-11-14T12:15:25.808Z,102441.74
2018-11-14T12:17:54.803Z,102436.20
2018-11-14T12:20:23.768Z,102432.78
2018-11-14T12:22:52.741Z,102433.30
2018-11-14T12:25:22.559Z,102433.91
2018-11-14T12:27:51.539Z,102434.00
2018-11-14T12:30:20.601Z,102426.98
2018-11-14T12:32:49.524Z,102426.25
2018-11-14T12:35:18.653Z,102427.20
2018-11-14T12:37:47.506Z,102424.84
2018-11-14T12:40:16.460Z,102419.77
2018-11-14T12:42:45.429Z,102418.53
2018-11-14T12:45:15.916Z,102411.80
2018-11-14T12:47:44.782Z,102412.63
2018-11-14T12:50:14.389Z,102408.80
2018-11-14T12:52:43.718Z,102407.65
2018-11-14T12:55:16.789Z,102404.35
2018-11-14T12:57:45.741Z,102409.00
2018-11-14T13:00:16.824Z,102413.88
2018-11-14T13:02:45.851Z,102414.28
2018-11-14T13:05:15.528Z,102409.83
2018-11-14T13:07:44.883Z,102415.53
2018-11-14T13:10:15.061Z,102407.45
2018-11-14T13:12:44.636Z,102412.43
2018-11-14T13:15:14.682Z,102413.88
2018-11-14T13:17:44.141Z,102412.73
2018-11-14T13:20:15.325Z,102414.59
2018-11-14T13:22:44.418Z,102416.98
2018-11-14T13:25:14.013Z,102417.70
2018-11-14T13:27:44.267Z,102412.73
2018-11-14T13:30:15.357Z,102407.66
2018-11-14T13:32:44.986Z,102406.20
2018-11-14T13:35:15.194Z,102403.91
2018-11-14T13:37:44.881Z,102392.94
2018-11-14T13:40:13.870Z,102395.55
2018-11-14T13:42:43.093Z,102401.34
2018-11-14T13:45:13.325Z,102402.79
2018-11-14T13:47:42.780Z,102394.92
2018-11-14T13:50:17.324Z,102407.65
2018-11-14T13:52:46.249Z,102409.73
2018-11-14T13:55:16.608Z,102421.77
2018-11-14T13:57:46.818Z,102424.55
2018-11-14T14:00:17.555Z,102420.71
2018-11-14T14:02:46.860Z,102424.45
2018-11-14T14:05:19.827Z,102421.53
2018-11-14T14:07:48.797Z,102415.94
2018-11-14T14:10:18.219Z,102416.04
2018-11-14T14:12:49.391Z,102405.37
2018-11-14T14:15:21.578Z,102410.45
2018-11-14T14:17:50.954Z,102407.25
2018-11-14T14:20:20.448Z,102408.27
2018-11-14T14:22:49.435Z,102406.00
2018-11-14T14:25:19.819Z,102419.47
2018-11-14T14:27:48.762Z,102413.45
2018-11-14T14:30:19.242Z,102413.15
2018-11-14T14:32:48.342Z,102409.20
2018-11-14T14:35:18.444Z,102411.39
2018-11-14T14:37:47.415Z,102404.13
2018-11-14T14:40:17.734Z,102406.95
2018-11-14T14:42:46.729Z,102406.20
2018-11-14T14:45:17.280Z,102415.63
2018-11-14T14:47:46.230Z,102415.33
2018-11-14T14:50:16.474Z,102417.92
2018-11-14T14:52:45.795Z,102423.61
2018-11-14T14:55:17.110Z,102425.49
2018-11-14T14:57:46.882Z,102422.25
2018-11-14T15:00:17.216Z,102409.64
2018-11-14T15:02:46.128Z,102405.91
2018-11-14T15:05:15.126Z,102406.12
2018-11-14T15:07:44.190Z,102392.42
2018-11-14T15:10:14.912Z,102395.23
2018-11-14T15:12:43.862Z,102400.93
2018-11-14T15:15:13.488Z,102393.77
2018-11-14T15:17:42.565Z,102392.11
2018-11-14T15:20:13.833Z,102390.05
2018-11-14T15:22:42.978Z,102381.44
2018-11-14T15:25:13.155Z,102373.59
2018-11-14T15:27:42.683Z,102384.98
2018-11-14T15:30:14.543Z,102390.45
2018-11-14T15:32:43.496Z,102386.62
2018-11-14T15:35:13.034Z,102387.55
2018-11-14T15:37:42.022Z,102379.78
2018-11-14T15:40:13.609Z,102371.70
2018-11-14T15:42:42.640Z,102366.22
2018-11-14T15:45:14.762Z,102374.19
2018-11-14T15:47:43.770Z,102372.54
2018-11-14T15:50:14.007Z,102378.63
2018-11-14T15:52:44.219Z,102385.59
2018-11-14T15:55:14.309Z,102396.77
2018-11-14T15:57:43.329Z,102407.11
2018-11-14T16:00:15.290Z,102394.47
2018-11-14T16:02:44.346Z,102393.88
2018-11-14T16:05:14.692Z,102388.69
2018-11-14T16:07:44.727Z,102385.27
2018-11-14T16:10:15.060Z,102382.67
2018-11-14T16:12:44.445Z,102375.92
2018-11-14T16:15:15.715Z,102374.98
2018-11-14T16:17:44.652Z,102367.98
2018-11-14T16:20:16.048Z,102369.21
2018-11-14T16:22:45.005Z,102375.44
2018-11-14T16:25:16.290Z,102375.92
2018-11-14T16:27:46.276Z,102388.67
2018-11-14T16:30:19.350Z,102379.77
2018-11-14T16:32:49.334Z,102374.80
2018-11-14T16:35:18.330Z,102374.59
2018-11-14T16:37:47.262Z,102376.97
2018-11-14T16:40:23.385Z,102378.41
2018-11-14T16:42:53.246Z,102377.59
2018-11-14T16:45:22.203Z,102376.13
2018-11-14T16:47:51.169Z,102377.39
2018-11-14T16:50:20.976Z,102374.27
2018-11-14T16:52:49.987Z,102373.95
2018-11-14T16:55:20.040Z,102381.61
2018-11-14T16:57:49.884Z,102383.23
2018-11-14T17:00:22.686Z,102379.28
2018-11-14T17:02:51.623Z,102378.98
2018-11-14T17:05:21.135Z,102381.72
2018-11-14T17:07:50.096Z,102382.41
2018-11-14T17:10:20.182Z,102382.50
2018-11-14T17:12:50.444Z,102390.58
2018-11-14T17:15:21.764Z,102385.19
2018-11-14T17:17:50.763Z,102378.36
2018-11-14T17:20:20.586Z,102382.18
2018-11-14T17:22:50.401Z,102381.34
2018-11-14T17:25:19.717Z,102377.61
2018-11-14T17:27:48.972Z,102385.87
2018-11-14T17:30:20.259Z,102374.22
2018-11-14T17:32:49.234Z,102382.11
2018-11-14T17:35:18.472Z,102388.00
2018-11-14T17:37:47.615Z,102381.59
2018-11-14T17:40:19.114Z,102378.81
2018-11-14T17:42:48.846Z,102379.62
2018-11-14T17:45:19.297Z,102385.32
2018-11-14T17:47:48.973Z,102379.51
2018-11-14T17:50:20.990Z,102371.34
2018-11-14T17:52:51.004Z,102379.64
2018-11-14T17:55:21.039Z,102379.39
2018-11-14T17:57:50.255Z,102381.28
2018-11-14T18:00:20.709Z,102384.08
2018-11-14T18:02:49.673Z,102374.55
2018-11-14T18:05:19.897Z,102377.22
2018-11-14T18:07:49.483Z,102373.41
2018-11-14T18:10:19.929Z,102372.06
2018-11-14T18:12:50.026Z,102375.17
2018-11-14T18:15:19.094Z,102376.51
2018-11-14T18:17:48.868Z,102385.73
2018-11-14T18:20:19.203Z,102379.20
2018-11-14T18:22:48.777Z,102377.68
2018-11-14T18:25:17.796Z,102382.02
2018-11-14T18:27:46.774Z,102376.44
2018-11-14T18:30:20.971Z,102375.08
2018-11-14T18:32:50.164Z,102375.45
2018-11-14T18:35:19.849Z,102378.67
2018-11-14T18:37:49.567Z,102382.94
2018-11-14T18:40:19.902Z,102388.38
2018-11-14T18:42:49.003Z,102396.64
2018-11-14T18:45:21.573Z,102393.89
2018-11-14T18:47:50.745Z,102384.98
2018-11-14T18:50:20.399Z,102385.20
2018-11-14T18:52:49.973Z,102383.41
2018-11-14T18:55:20.280Z,102386.86
2018-11-14T18:57:49.676Z,102393.25
2018-11-14T19:00:21.559Z,102390.44
2018-11-14T19:02:50.667Z,102401.02
2018-11-14T19:05:20.114Z,102401.93
2018-11-14T19:07:49.106Z,102398.09
2018-11-14T19:10:19.555Z,102395.45
2018-11-14T19:12:49.252Z,102403.41
2018-11-14T19:15:19.962Z,102400.30
2018-11-14T19:17:49.013Z,102404.14
2018-11-14T19:20:20.486Z,102402.57
2018-11-14T19:22:49.624Z,102397.84
2018-11-14T19:25:20.208Z,102394.05
2018-11-14T19:27:49.630Z,102395.28
2018-11-14T19:30:20.768Z,102393.29
2018-11-14T19:32:51.000Z,102391.59
2018-11-14T19:35:20.874Z,102397.33
2018-11-14T19:37:51.372Z,102398.89
2018-11-14T19:40:21.670Z,102397.20
2018-11-14T19:42:52.028Z,102401.52
2018-11-14T19:45:22.474Z,102399.48
2018-11-14T19:47:51.494Z,102399.08
2018-11-14T19:50:21.298Z,102398.84
2018-11-14T19:52:50.983Z,102389.80
2018-11-14T19:55:21.360Z,102398.30
2018-11-14T19:57:51.411Z,102398.59
2018-11-14T20:00:23.845Z,102392.19
2018-11-14T20:02:52.908Z,102394.73
2018-11-14T20:05:23.608Z,102393.22
2018-11-14T20:07:52.750Z,102387.13
2018-11-14T20:10:23.275Z,102379.63
2018-11-14T20:12:52.796Z,102378.80
2018-11-14T20:15:24.645Z,102392.14
2018-11-14T20:17:53.805Z,102395.73
2018-11-14T20:20:26.141Z,102389.58
2018-11-14T20:22:55.144Z,102392.44
2018-11-14T20:25:24.128Z,102397.56
2018-11-14T20:27:53.111Z,102403.61
2018-11-14T20:30:23.504Z,102399.39
2018-11-14T20:32:53.301Z,102405.60
2018-11-14T20:35:22.969Z,102405.55
2018-11-14T20:37:51.955Z,102401.71
2018-11-14T20:40:21.790Z,102399.89
2018-11-14T20:42:53.240Z,102402.27
2018-11-14T20:45:25.388Z,102406.46
2018-11-14T20:47:56.524Z,102405.02
2018-11-14T20:50:28.409Z,102400.11
2018-11-14T20:52:59.246Z,102402.81
2018-11-14T20:55:28.604Z,102401.70
2018-11-14T20:58:04.049Z,102401.35
2018-11-14T21:00:35.390Z,102401.70
2018-11-14T21:03:04.836Z,102403.17
2018-11-14T21:05:33.943Z,102406.66
2018-11-14T21:08:03.540Z,102412.14
2018-11-14T21:10:33.656Z,102406.95
2018-11-14T21:13:03.436Z,102401.04
2018-11-14T21:15:33.903Z,102394.30
2018-11-14T21:18:03.325Z,102393.63
2018-11-14T21:20:32.266Z,102391.14
2018-11-14T21:23:01.296Z,102398.09
2018-11-14T21:25:30.369Z,102408.05
2018-11-14T21:27:59.440Z,102401.91
2018-11-14T21:30:29.295Z,102408.50
2018-11-14T21:32:59.053Z,102412.34
2018-11-14T21:35:30.605Z,102413.00
2018-11-14T21:38:00.938Z,102413.69
2018-11-14T21:40:29.909Z,102417.64
2018-11-14T21:42:58.944Z,102418.69
2018-11-14T21:45:28.678Z,102414.89
2018-11-14T21:48:03.002Z,102413.25
2018-11-14T21:50:32.647Z,102410.81
2018-11-14T21:53:01.634Z,102414.57
2018-11-14T21:55:30.586Z,102414.50
2018-11-14T21:57:59.581Z,102419.84
2018-11-14T22:00:31.466Z,102420.31
2018-11-14T22:03:00.491Z,102419.34
2018-11-14T22:05:29.491Z,102413.97
2018-11-14T22:07:58.459Z,102407.52
2018-11-14T22:10:27.560Z,102404.77
2018-11-14T22:12:56.558Z,102401.77
2018-11-14T22:15:26.566Z,102404.45
2018-11-14T22:17:55.551Z,102400.42
2018-11-14T22:20:25.503Z,102395.05
2018-11-14T22:22:55.245Z,102407.27
2018-11-14T22:25:25.179Z,102403.36
2018-11-14T22:27:54.210Z,102407.82
2018-11-14T22:30:25.694Z,102406.77
2018-11-14T22:32:54.616Z,102409.13
2018-11-14T22:35:24.969Z,102407.48
2018-11-14T22:37:54.090Z,102399.36
2018-11-14T22:40:24.389Z,102388.72
2018-11-14T22:42:53.474Z,102385.92
2018-11-14T22:45:23.832Z,102381.63
2018-11-14T22:47:52.775Z,102386.30
2018-11-14T22:50:22.808Z,102385.02
2018-11-14T22:52:52.144Z,102381.49
2018-11-14T22:55:22.232Z,102377.73
2018-11-14T22:57:51.830Z,102383.94
2018-11-14T23:00:24.150Z,102379.41
2018-11-14T23:02:54.245Z,102387.62
2018-11-14T23:05:23.186Z,102383.28
2018-11-14T23:07:53.148Z,102385.85
2018-11-14T23:10:22.881Z,102383.46
2018-11-14T23:12:51.931Z,102378.92
2018-11-14T23:15:21.445Z,102388.77
2018-11-14T23:17:50.526Z,102376.26
2018-11-14T23:20:19.640Z,102380.34
2018-11-14T23:22:53.440Z,102386.98
2018-11-14T23:25:23.716Z,102394.31
2018-11-14T23:28:00.518Z,102391.14
2018-11-14T23:30:31.229Z,102388.02
2018-11-14T23:33:02.292Z,102386.75
2018-11-14T23:35:32.164Z,102384.56
2018-11-14T23:38:03.184Z,102386.67
2018-11-14T23:40:32.138Z,102385.02
2018-11-14T23:43:01.100Z,102378.58
2018-11-14T23:45:30.714Z,102379.00
2018-11-14T23:47:59.725Z,102373.69
2018-11-14T23:50:30.785Z,102379.57
2018-11-14T23:53:00.749Z,102371.27
2018-11-14T23:55:30.517Z,102363.56
2018-11-14T23:57:59.754Z,102374.11
